Time;durP1;ratioP1;P1;durP2;ratioP2;P2;SDS_P1;SDS_P2;PMS_P1;PMS_P2;Temp;Humidity;BMP_temperature;BMP_pressure;BME280_temperature;BME280_humidity;BME280_pressure;Samples;Min_cycle;Max_cycle;Signal;HPM_P1;HPM_P2
2021/12/09 00:01:33;;;;;;;6.65;3.80;;;2.80;99.90;;;;;;5030435;28;20071;-42
2021/12/09 00:04:02;;;;;;;7.75;3.60;;;2.80;99.90;;;;;;5036021;28;20064;-44
2021/12/09 00:06:30;;;;;;;7.90;3.47;;;2.80;99.90;;;;;;5031760;28;20079;-43
2021/12/09 00:08:59;;;;;;;6.50;3.53;;;2.70;99.90;;;;;;5034936;28;20029;-44
2021/12/09 00:11:25;;;;;;;6.40;3.63;;;2.70;99.90;;;;;;5033231;28;20108;-43
2021/12/09 00:13:50;;;;;;;6.45;3.40;;;2.70;99.90;;;;;;5032789;28;20456;-44
2021/12/09 00:16:16;;;;;;;5.80;3.67;;;2.70;99.90;;;;;;5035611;28;20031;-44
2021/12/09 00:18:43;;;;;;;7.60;3.22;;;2.70;99.90;;;;;;5029189;28;20069;-43
2021/12/09 00:21:10;;;;;;;5.03;3.25;;;2.70;99.90;;;;;;5038811;28;20452;-44
2021/12/09 00:23:35;;;;;;;5.57;3.30;;;2.60;99.90;;;;;;5028688;28;20025;-43
2021/12/09 00:26:02;;;;;;;5.03;3.33;;;2.60;99.90;;;;;;5039497;28;20018;-43
2021/12/09 00:28:27;;;;;;;4.90;3.22;;;2.60;99.90;;;;;;5028313;28;20029;-43
2021/12/09 00:30:53;;;;;;;4.35;3.20;;;2.60;99.90;;;;;;5038129;28;20392;-42
2021/12/09 00:33:19;;;;;;;6.55;3.45;;;2.60;99.90;;;;;;5028163;28;20036;-42
2021/12/09 00:35:50;;;;;;;4.35;3.67;;;2.60;99.90;;;;;;5040217;28;20056;-44
2021/12/09 00:38:22;;;;;;;8.75;3.92;;;2.60;99.90;;;;;;5027557;28;20041;-42
2021/12/09 00:40:49;;;;;;;4.93;3.65;;;2.60;99.90;;;;;;5039349;28;20029;-42
2021/12/09 00:43:17;;;;;;;5.72;3.42;;;2.50;99.90;;;;;;5027766;28;20029;-42
2021/12/09 00:45:43;;;;;;;6.25;3.78;;;2.60;99.90;;;;;;5038109;28;20114;-42
2021/12/09 00:48:09;;;;;;;6.40;4.07;;;2.50;99.90;;;;;;5028664;28;20079;-43
2021/12/09 00:50:34;;;;;;;7.65;4.20;;;2.50;99.90;;;;;;5036521;28;20045;-42
2021/12/09 00:53:00;;;;;;;7.95;4.70;;;2.50;99.90;;;;;;5030237;28;20056;-43
2021/12/09 00:55:26;;;;;;;6.82;4.00;;;2.50;99.90;;;;;;5036336;28;20021;-43
2021/12/09 00:57:51;;;;;;;6.28;4.28;;;2.50;99.90;;;;;;5041352;28;20029;-42
2021/12/09 01:00:21;;;;;;;6.65;4.05;;;2.50;99.90;;;;;;5043184;28;20032;-43
2021/12/09 01:02:47;;;;;;;6.78;3.38;;;2.50;99.90;;;;;;5039001;28;20109;-43
2021/12/09 01:05:14;;;;;;;6.10;4.10;;;2.50;99.90;;;;;;5045638;28;20025;-44
2021/12/09 01:07:40;;;;;;;5.95;3.70;;;2.50;99.90;;;;;;5035419;28;20028;-43
2021/12/09 01:10:09;;;;;;;7.15;3.58;;;2.50;99.90;;;;;;5046118;28;20496;-43
2021/12/09 01:12:34;;;;;;;5.45;3.38;;;2.50;99.90;;;;;;5035157;28;20094;-43
2021/12/09 01:15:00;;;;;;;4.28;3.70;;;2.50;99.90;;;;;;5045959;28;20028;-43
2021/12/09 01:17:26;;;;;;;4.32;3.38;;;2.50;99.90;;;;;;5034776;28;20132;-43
2021/12/09 01:19:53;;;;;;;4.93;3.70;;;2.40;99.90;;;;;;5046540;28;20051;-43
2021/12/09 01:22:19;;;;;;;6.43;3.60;;;2.40;99.90;;;;;;5034387;28;20052;-43
2021/12/09 01:24:45;;;;;;;4.95;3.45;;;2.40;99.90;;;;;;5047441;28;20033;-43
2021/12/09 01:27:11;;;;;;;5.80;3.92;;;2.40;99.90;;;;;;5034066;28;20029;-44
2021/12/09 01:29:40;;;;;;;5.70;3.78;;;2.40;99.90;;;;;;5046492;28;20713;-43
2021/12/09 01:32:10;;;;;;;7.57;3.47;;;2.40;99.90;;;;;;5036780;28;20028;-43
2021/12/09 01:34:37;;;;;;;6.18;3.88;;;2.30;99.90;;;;;;5044332;28;20060;-43
2021/12/09 01:37:06;;;;;;;4.85;3.50;;;2.30;99.90;;;;;;5038558;28;20028;-43
2021/12/09 01:39:33;;;;;;;6.13;3.60;;;2.30;99.90;;;;;;5043062;28;20533;-43
2021/12/09 01:41:59;;;;;;;5.07;3.10;;;2.30;99.90;;;;;;5039808;28;20025;-43
2021/12/09 01:44:26;;;;;;;4.07;3.33;;;2.30;99.90;;;;;;5040372;28;20546;-43
2021/12/09 01:46:52;;;;;;;7.55;4.32;;;2.30;99.90;;;;;;5043216;28;20092;-43
2021/12/09 01:49:18;;;;;;;8.55;4.30;;;2.30;99.90;;;;;;5037403;28;20476;-43
2021/12/09 01:51:46;;;;;;;8.30;4.03;;;2.30;99.90;;;;;;5047706;28;20028;-43
2021/12/09 01:54:13;;;;;;;7.00;4.30;;;2.30;99.90;;;;;;5029420;28;20021;-43
2021/12/09 01:56:38;;;;;;;5.60;3.47;;;2.30;99.90;;;;;;5048346;28;20468;-43
2021/12/09 01:59:05;;;;;;;5.25;4.45;;;2.30;99.90;;;;;;5039251;28;20033;-43
2021/12/09 02:01:32;;;;;;;7.97;3.78;;;2.20;99.90;;;;;;5049641;28;20086;-42
2021/12/09 02:03:58;;;;;;;6.85;4.22;;;2.30;99.90;;;;;;5038251;28;20016;-43
2021/12/09 02:06:26;;;;;;;9.77;4.32;;;2.30;99.90;;;;;;5050280;28;20550;-43
2021/12/09 02:08:53;;;;;;;6.10;4.07;;;2.30;99.90;;;;;;5036575;28;20552;-43
2021/12/09 02:11:19;;;;;;;6.47;4.00;;;2.40;99.90;;;;;;5051167;28;20053;-44
2021/12/09 02:13:45;;;;;;;7.70;3.90;;;2.40;99.90;;;;;;5038042;28;20045;-43
2021/12/09 02:16:11;;;;;;;6.32;4.30;;;2.40;99.90;;;;;;5049962;28;20044;-42
2021/12/09 02:18:37;;;;;;;7.68;4.55;;;2.40;99.90;;;;;;5040140;28;20045;-43
2021/12/09 02:21:14;;;;;;;7.70;4.30;;;2.40;99.90;;;;;;5046930;28;20036;-44
2021/12/09 02:23:48;;;;;;;5.03;3.90;;;2.40;99.90;;;;;;5040695;28;20021;-42
2021/12/09 02:26:16;;;;;;;6.18;3.72;;;2.40;99.90;;;;;;5048252;28;20032;-43
2021/12/09 02:28:42;;;;;;;4.70;3.88;;;2.40;99.90;;;;;;5042213;28;20017;-43
2021/12/09 02:31:09;;;;;;;5.55;3.88;;;2.30;99.90;;;;;;5044018;28;20495;-44
2021/12/09 02:33:35;;;;;;;5.30;3.50;;;2.30;99.90;;;;;;5045001;28;20025;-44
2021/12/09 02:36:00;;;;;;;5.65;3.83;;;2.30;99.90;;;;;;5042167;28;20035;-44
2021/12/09 02:38:26;;;;;;;5.97;3.65;;;2.30;99.90;;;;;;5046574;28;20037;-43
2021/12/09 02:40:52;;;;;;;5.82;4.07;;;2.20;99.90;;;;;;5040099;28;20032;-43
2021/12/09 02:43:28;;;;;;;6.03;3.80;;;2.20;99.90;;;;;;5048346;28;20850;-43
2021/12/09 02:45:56;;;;;;;6.93;4.05;;;2.10;99.90;;;;;;5026640;28;20017;-43
2021/12/09 02:48:22;;;;;;;6.30;4.20;;;2.10;99.90;;;;;;5048876;28;20017;-43
2021/12/09 02:50:50;;;;;;;5.38;3.70;;;2.10;99.90;;;;;;5037768;28;20025;-43
2021/12/09 02:53:15;;;;;;;6.35;4.35;;;2.00;99.90;;;;;;5049476;28;20120;-44
2021/12/09 02:55:42;;;;;;;5.75;3.95;;;2.00;99.90;;;;;;5037556;28;20021;-44
2021/12/09 02:58:07;;;;;;;7.43;4.30;;;2.00;99.90;;;;;;5048630;28;20033;-44
2021/12/09 03:00:33;;;;;;;5.45;3.45;;;2.00;99.90;;;;;;5036532;28;20472;-43
2021/12/09 03:02:59;;;;;;;8.07;3.78;;;1.90;99.90;;;;;;5048892;28;20387;-43
2021/12/09 03:05:26;;;;;;;4.78;3.83;;;1.90;99.90;;;;;;5036833;28;20029;-43
2021/12/09 03:07:52;;;;;;;6.05;3.90;;;1.90;99.90;;;;;;5048791;28;20021;-43
2021/12/09 03:10:24;;;;;;;5.28;3.67;;;1.90;99.90;;;;;;5040130;28;20020;-44
2021/12/09 03:12:56;;;;;;;6.10;3.67;;;1.80;99.90;;;;;;5046156;28;20029;-43
2021/12/09 03:15:22;;;;;;;6.05;3.97;;;1.80;99.90;;;;;;5041067;28;20378;-43
2021/12/09 03:17:49;;;;;;;4.75;3.40;;;1.80;99.90;;;;;;5045388;28;20061;-44
2021/12/09 03:20:17;;;;;;;5.50;3.50;;;1.80;99.90;;;;;;5042246;28;20109;-43
2021/12/09 03:22:44;;;;;;;7.68;3.58;;;1.80;99.90;;;;;;5042751;28;20082;-44
2021/12/09 03:25:12;;;;;;;6.10;3.63;;;1.80;99.90;;;;;;5044940;28;20048;-42
2021/12/09 03:27:38;;;;;;;6.05;3.95;;;1.70;99.90;;;;;;5040122;28;20488;-42
2021/12/09 03:30:06;;;;;;;7.28;3.78;;;1.80;99.90;;;;;;5047240;28;20048;-42
2021/12/09 03:32:32;;;;;;;5.10;3.80;;;1.80;99.90;;;;;;5038123;28;20028;-43
2021/12/09 03:34:58;;;;;;;5.03;3.65;;;1.80;99.90;;;;;;5046376;28;20033;-43
2021/12/09 03:37:27;;;;;;;6.68;4.25;;;1.70;99.90;;;;;;5037453;28;20025;-43
2021/12/09 03:39:54;;;;;;;6.00;4.13;;;1.70;99.90;;;;;;5047474;28;20397;-43
2021/12/09 03:42:23;;;;;;;6.00;4.07;;;1.70;99.90;;;;;;5037242;28;20025;-43
2021/12/09 03:44:50;;;;;;;5.55;4.10;;;1.70;99.90;;;;;;5048355;28;20039;-44
2021/12/09 03:47:19;;;;;;;4.90;3.58;;;1.70;99.90;;;;;;5035440;28;20035;-42
2021/12/09 03:49:46;;;;;;;4.70;3.55;;;1.60;99.90;;;;;;5048914;28;20033;-44
2021/12/09 03:52:12;;;;;;;5.43;3.50;;;1.60;99.90;;;;;;5035628;28;20026;-43
2021/12/09 03:54:39;;;;;;;5.85;4.43;;;1.60;99.90;;;;;;5047716;28;20029;-43
2021/12/09 03:57:05;;;;;;;7.25;4.40;;;1.60;99.90;;;;;;5037438;28;20104;-43
2021/12/09 03:59:31;;;;;;;6.60;4.03;;;1.50;99.90;;;;;;5046847;28;20116;-42
2021/12/09 04:01:56;;;;;;;6.63;3.90;;;1.50;99.90;;;;;;5039042;28;20132;-43
2021/12/09 04:04:23;;;;;;;6.88;3.40;;;1.50;99.90;;;;;;5045063;28;20112;-43
2021/12/09 04:06:49;;;;;;;5.72;4.05;;;1.50;99.90;;;;;;5042194;28;20024;-43
2021/12/09 04:09:18;;;;;;;7.75;3.67;;;1.50;99.90;;;;;;5041067;28;20028;-42
2021/12/09 04:11:44;;;;;;;4.68;3.58;;;1.50;99.90;;;;;;5044216;28;20025;-43
2021/12/09 04:14:09;;;;;;;6.97;3.97;;;1.40;99.90;;;;;;5039719;28;20032;-43
2021/12/09 04:16:36;;;;;;;4.68;3.42;;;1.40;99.90;;;;;;5045833;28;20045;-43
2021/12/09 04:19:03;;;;;;;5.93;3.97;;;1.40;99.90;;;;;;5025611;28;20052;-43
2021/12/09 04:21:29;;;;;;;8.48;5.05;;;1.40;99.90;;;;;;5046506;28;20590;-43
2021/12/09 04:23:54;;;;;;;5.03;3.55;;;1.40;99.90;;;;;;5035765;28;20195;-43
2021/12/09 04:26:20;;;;;;;6.47;4.10;;;1.40;99.90;;;;;;5047932;28;20503;-43
2021/12/09 04:28:46;;;;;;;8.30;3.70;;;1.40;99.90;;;;;;5035086;28;20110;-43
2021/12/09 04:31:12;;;;;;;6.25;3.90;;;1.40;99.90;;;;;;5047485;28;20033;-43
2021/12/09 04:33:38;;;;;;;5.32;3.50;;;1.40;99.90;;;;;;5034518;28;20186;-43
2021/12/09 04:36:04;;;;;;;6.40;3.78;;;1.40;99.90;;;;;;5047945;28;20031;-43
2021/12/09 04:38:30;;;;;;;5.53;3.53;;;1.40;99.90;;;;;;5035079;28;20499;-43
2021/12/09 04:40:55;;;;;;;7.93;4.22;;;1.40;99.90;;;;;;5046571;28;20110;-42
2021/12/09 04:43:21;;;;;;;5.80;3.42;;;1.40;99.90;;;;;;5038192;28;20470;-43
2021/12/09 04:45:47;;;;;;;5.43;3.47;;;1.40;99.90;;;;;;5043345;28;20029;-43
2021/12/09 04:48:12;;;;;;;6.00;3.50;;;1.40;99.90;;;;;;5041335;28;20025;-42
2021/12/09 04:50:39;;;;;;;5.57;3.42;;;1.40;99.90;;;;;;5040473;28;20029;-43
2021/12/09 04:53:06;;;;;;;7.15;4.07;;;1.40;99.90;;;;;;5043307;28;20021;-43
2021/12/09 04:55:32;;;;;;;6.43;3.72;;;1.30;99.90;;;;;;5043608;28;20388;-44
2021/12/09 04:57:58;;;;;;;5.75;3.63;;;1.30;99.90;;;;;;5044646;28;20021;-43
2021/12/09 05:00:26;;;;;;;4.72;3.17;;;1.30;99.90;;;;;;5036314;28;20048;-42
2021/12/09 05:03:07;;;;;;;5.32;3.35;;;1.30;99.90;;;;;;5045782;28;20025;-44
2021/12/09 05:05:38;;;;;;;4.55;3.13;;;1.30;99.90;;;;;;5035088;28;20029;-43
2021/12/09 05:08:07;;;;;;;6.40;3.13;;;1.30;99.90;;;;;;5046084;28;20029;-44
2021/12/09 05:10:53;;;;;;;4.15;3.20;;;1.30;99.90;;;;;;5035534;28;20411;-43
2021/12/09 05:13:19;;;;;;;4.63;2.80;;;1.30;99.90;;;;;;5045123;28;20199;-43
2021/12/09 05:15:45;;;;;;;5.57;3.20;;;1.30;99.90;;;;;;5035928;28;20040;-42
2021/12/09 05:18:12;;;;;;;6.95;4.03;;;1.30;99.90;;;;;;5046174;28;20044;-43
2021/12/09 05:20:38;;;;;;;4.50;3.28;;;1.30;99.90;;;;;;5035245;28;20029;-42
2021/12/09 05:23:04;;;;;;;6.40;3.58;;;1.30;99.90;;;;;;5046479;28;20056;-43
2021/12/09 05:25:30;;;;;;;5.28;3.33;;;1.30;99.90;;;;;;5033891;28;20029;-45
2021/12/09 05:27:55;;;;;;;5.80;3.30;;;1.30;99.90;;;;;;5046480;28;20496;-44
2021/12/09 05:30:25;;;;;;;9.05;3.33;;;1.30;99.90;;;;;;5034642;28;20458;-43
2021/12/09 05:32:51;;;;;;;5.97;3.45;;;1.20;99.90;;;;;;5006984;28;20047;-43
2021/12/09 05:35:18;;;;;;;6.75;3.50;;;1.20;99.90;;;;;;5031720;28;20024;-43
2021/12/09 05:37:44;;;;;;;5.05;2.95;;;1.30;99.90;;;;;;5028866;28;20026;-43
2021/12/09 05:40:12;;;;;;;4.53;3.10;;;1.30;99.90;;;;;;5034438;28;20366;-44
2021/12/09 05:42:38;;;;;;;5.65;3.13;;;1.20;99.90;;;;;;5030727;28;20028;-43
2021/12/09 05:45:04;;;;;;;6.30;3.20;;;1.20;99.90;;;;;;5032332;28;20108;-43
2021/12/09 05:47:30;;;;;;;5.50;2.88;;;1.30;99.90;;;;;;5032718;28;20109;-43
2021/12/09 05:49:56;;;;;;;5.10;2.90;;;1.20;99.90;;;;;;5029952;28;20016;-44
2021/12/09 05:52:21;;;;;;;6.63;3.63;;;1.30;99.90;;;;;;5036210;28;20025;-42
2021/12/09 05:54:47;;;;;;;5.38;3.17;;;1.30;99.90;;;;;;5035074;28;20036;-43
2021/12/09 05:57:13;;;;;;;7.25;3.25;;;1.20;99.90;;;;;;5035478;28;20457;-43
2021/12/09 05:59:41;;;;;;;5.10;3.00;;;1.20;99.90;;;;;;5044424;28;20044;-42
2021/12/09 06:02:08;;;;;;;6.43;3.63;;;1.20;99.90;;;;;;5035159;28;20013;-43
2021/12/09 06:04:34;;;;;;;7.55;3.45;;;1.20;99.90;;;;;;5046391;28;20813;-43
2021/12/09 06:07:00;;;;;;;5.45;3.53;;;1.20;99.90;;;;;;5034021;28;20514;-43
2021/12/09 06:09:26;;;;;;;6.60;3.40;;;1.20;99.90;;;;;;5045870;28;20108;-43
2021/12/09 06:11:51;;;;;;;7.22;3.25;;;1.20;99.90;;;;;;5033298;28;20756;-44
2021/12/09 06:14:17;;;;;;;8.35;4.28;;;1.20;99.90;;;;;;5047128;28;20037;-44
2021/12/09 06:16:43;;;;;;;6.75;3.25;;;1.20;99.90;;;;;;5034940;28;20034;-44
2021/12/09 06:19:08;;;;;;;5.55;3.08;;;1.20;99.90;;;;;;5044377;28;20562;-42
2021/12/09 06:21:34;;;;;;;7.45;3.47;;;1.20;99.90;;;;;;5038377;28;20029;-43
2021/12/09 06:24:01;;;;;;;8.15;3.47;;;1.20;99.90;;;;;;5040973;28;20036;-43
2021/12/09 06:26:28;;;;;;;6.55;3.38;;;1.20;99.90;;;;;;5040559;28;20018;-45
2021/12/09 06:28:53;;;;;;;4.97;3.17;;;1.20;99.90;;;;;;5038779;28;20431;-43
2021/12/09 06:31:20;;;;;;;6.03;3.40;;;1.20;99.90;;;;;;5043433;28;20025;-43
2021/12/09 06:33:46;;;;;;;5.15;3.05;;;1.30;99.90;;;;;;5036843;28;20532;-43
2021/12/09 06:36:12;;;;;;;4.65;2.78;;;1.20;99.90;;;;;;5044458;28;20021;-44
2021/12/09 06:38:38;;;;;;;7.10;3.00;;;1.20;99.90;;;;;;5037588;28;20082;-43
2021/12/09 06:41:03;;;;;;;4.07;2.83;;;1.20;99.90;;;;;;5048158;28;20525;-43
2021/12/09 06:43:29;;;;;;;4.20;2.88;;;1.20;99.90;;;;;;5037950;28;20587;-44
2021/12/09 06:45:57;;;;;;;5.25;3.92;;;1.20;99.90;;;;;;5049916;28;20044;-44
2021/12/09 06:48:23;;;;;;;5.18;2.55;;;1.10;99.90;;;;;;5034024;28;20025;-43
2021/12/09 06:50:49;;;;;;;4.53;2.42;;;1.10;99.90;;;;;;5050978;28;20032;-43
2021/12/09 06:53:17;;;;;;;5.40;2.10;;;1.10;99.90;;;;;;5036443;28;20022;-43
2021/12/09 06:55:44;;;;;;;3.97;2.35;;;1.10;99.90;;;;;;5027778;28;20439;-44
2021/12/09 06:58:10;;;;;;;5.20;2.50;;;1.10;99.90;;;;;;5031133;28;20103;-44
2021/12/09 07:00:41;;;;;;;4.97;2.28;;;1.10;99.90;;;;;;5046634;28;20411;-45
2021/12/09 07:03:09;;;;;;;4.45;2.20;;;1.10;99.90;;;;;;5038991;28;20021;-42
2021/12/09 07:05:36;;;;;;;6.43;2.70;;;1.10;99.90;;;;;;5045349;28;20029;-43
2021/12/09 07:08:05;;;;;;;4.63;2.83;;;1.10;99.90;;;;;;5041249;28;20499;-42
2021/12/09 07:10:31;;;;;;;4.63;2.80;;;1.10;99.90;;;;;;5043999;28;20110;-42
2021/12/09 07:12:56;;;;;;;5.43;2.63;;;1.10;99.90;;;;;;5042116;28;20473;-43
2021/12/09 07:15:23;;;;;;;8.13;3.00;;;1.10;99.90;;;;;;5041344;28;20029;-43
2021/12/09 07:17:48;;;;;;;5.13;2.80;;;1.10;99.90;;;;;;5035460;28;20496;-43
2021/12/09 07:20:19;;;;;;;4.22;2.40;;;1.10;99.90;;;;;;5036841;28;20033;-43
2021/12/09 07:22:48;;;;;;;9.23;2.63;;;1.10;99.90;;;;;;5029757;28;20032;-43
2021/12/09 07:25:14;;;;;;;4.15;2.60;;;1.10;99.90;;;;;;5038172;28;20540;-43
2021/12/09 07:27:39;;;;;;;6.72;3.30;;;1.10;99.90;;;;;;5029732;28;20017;-43
2021/12/09 07:30:08;;;;;;;4.55;2.60;;;1.00;99.90;;;;;;5039108;28;20400;-43
2021/12/09 07:32:33;;;;;;;5.22;3.20;;;1.00;99.90;;;;;;5027548;28;20033;-43
2021/12/09 07:35:00;;;;;;;4.28;2.50;;;1.00;99.90;;;;;;5040375;28;20029;-43
2021/12/09 07:37:26;;;;;;;7.28;2.58;;;1.00;99.90;;;;;;5028695;28;20041;-44
2021/12/09 07:39:51;;;;;;;5.75;2.63;;;1.00;99.90;;;;;;5040436;28;20051;-44
2021/12/09 07:42:17;;;;;;;8.27;3.75;;;1.00;99.90;;;;;;5027737;28;20036;-44
2021/12/09 07:44:43;;;;;;;4.60;2.55;;;1.00;99.90;;;;;;5031775;28;20037;-44
2021/12/09 07:47:09;;;;;;;7.43;3.28;;;1.00;99.90;;;;;;5046768;28;20435;-43
2021/12/09 07:49:35;;;;;;;7.00;4.35;;;1.10;99.90;;;;;;5038982;28;20421;-42
2021/12/09 07:52:01;;;;;;;6.65;3.72;;;1.10;99.90;;;;;;5029487;28;20381;-44
2021/12/09 07:54:29;;;;;;;9.40;4.55;;;1.20;99.90;;;;;;5034234;28;20024;-43
2021/12/09 07:56:55;;;;;;;7.13;4.68;;;1.20;99.90;;;;;;5034255;28;20049;-43
2021/12/09 07:59:21;;;;;;;9.13;4.53;;;1.20;99.90;;;;;;5032299;28;20123;-43
2021/12/09 08:01:46;;;;;;;7.07;3.90;;;1.20;99.90;;;;;;5035923;28;20013;-42
2021/12/09 08:04:12;;;;;;;8.82;4.57;;;1.30;99.90;;;;;;5029658;28;20397;-43
2021/12/09 08:06:38;;;;;;;5.72;3.60;;;1.30;99.90;;;;;;5039899;28;20057;-43
2021/12/09 08:09:05;;;;;;;7.78;3.63;;;1.30;99.90;;;;;;5028934;28;20029;-43
2021/12/09 08:11:33;;;;;;;9.38;3.33;;;1.30;99.90;;;;;;5039385;28;20076;-42
2021/12/09 08:13:59;;;;;;;7.13;3.50;;;1.30;99.90;;;;;;5028297;28;20060;-43
2021/12/09 08:16:25;;;;;;;6.80;4.00;;;1.30;99.90;;;;;;5039349;28;20026;-44
2021/12/09 08:18:53;;;;;;;5.18;3.00;;;1.30;99.90;;;;;;5027580;28;20266;-43
2021/12/09 08:21:24;;;;;;;6.00;3.22;;;1.30;99.90;;;;;;5040403;28;20037;-43
2021/12/09 08:23:51;;;;;;;7.57;3.33;;;1.40;99.90;;;;;;5028244;28;20021;-43
2021/12/09 08:26:17;;;;;;;4.38;2.85;;;1.50;99.90;;;;;;5040187;28;20037;-43
2021/12/09 08:28:42;;;;;;;5.30;3.38;;;1.50;99.90;;;;;;5027343;28;20033;-42
2021/12/09 08:31:08;;;;;;;5.43;3.05;;;1.60;99.90;;;;;;5037802;28;20231;-42
2021/12/09 08:33:33;;;;;;;5.35;3.35;;;1.60;99.90;;;;;;5030195;28;20029;-43
2021/12/09 08:35:59;;;;;;;6.03;3.08;;;1.60;99.90;;;;;;5034281;28;20017;-43
2021/12/09 08:38:25;;;;;;;8.35;3.10;;;1.70;99.90;;;;;;5032412;28;20068;-43
2021/12/09 08:40:51;;;;;;;5.25;3.33;;;1.80;99.90;;;;;;5032849;28;20024;-43
2021/12/09 08:43:19;;;;;;;5.18;2.50;;;1.90;99.90;;;;;;5034651;28;20030;-43
2021/12/09 08:45:46;;;;;;;4.28;2.63;;;2.00;99.90;;;;;;5030055;28;20020;-43
2021/12/09 08:48:12;;;;;;;8.45;3.50;;;2.10;99.90;;;;;;5037489;28;20034;-43
2021/12/09 08:50:38;;;;;;;5.00;3.35;;;2.30;99.90;;;;;;5027960;28;20392;-43
2021/12/09 08:53:08;;;;;;;4.75;3.08;;;2.40;99.90;;;;;;5038925;28;20487;-43
2021/12/09 08:55:34;;;;;;;8.38;3.20;;;2.50;99.90;;;;;;5028573;28;20033;-43
2021/12/09 08:58:00;;;;;;;6.97;4.57;;;2.50;99.90;;;;;;5037732;28;20041;-43
2021/12/09 09:00:28;;;;;;;12.10;4.18;;;2.60;99.90;;;;;;5027190;28;20037;-43
2021/12/09 09:02:54;;;;;;;7.57;3.80;;;2.60;99.90;;;;;;5039281;28;20025;-44
2021/12/09 09:05:20;;;;;;;9.90;4.10;;;2.70;99.90;;;;;;5026839;28;20481;-44
2021/12/09 09:07:49;;;;;;;9.05;4.22;;;2.70;99.90;;;;;;5039237;28;20057;-44
2021/12/09 09:10:18;;;;;;;7.60;3.85;;;2.80;99.90;;;;;;5028178;28;20124;-43
2021/12/09 09:12:44;;;;;;;7.80;3.90;;;2.80;99.90;;;;;;5038284;28;20071;-42
2021/12/09 09:15:13;;;;;;;7.53;3.38;;;2.90;99.90;;;;;;5027037;28;20033;-42
2021/12/09 09:17:39;;;;;;;9.93;4.43;;;3.00;99.90;;;;;;5036126;28;20037;-42
2021/12/09 09:20:08;;;;;;;6.78;3.80;;;3.00;99.90;;;;;;5029359;28;20786;-43
2021/12/09 09:22:36;;;;;;;7.03;4.10;;;3.10;99.90;;;;;;5034808;28;20052;-42
2021/12/09 09:25:03;;;;;;;6.15;4.03;;;3.20;99.90;;;;;;5030717;28;20448;-43
2021/12/09 09:27:29;;;;;;;8.60;3.60;;;3.30;99.90;;;;;;5031841;28;20144;-43
2021/12/09 09:29:54;;;;;;;8.10;4.30;;;3.30;99.90;;;;;;5033944;28;20830;-42
2021/12/09 09:32:20;;;;;;;7.07;4.30;;;3.30;99.90;;;;;;5029661;28;20021;-43
2021/12/09 09:34:45;;;;;;;11.57;5.28;;;3.40;99.90;;;;;;5033819;28;20033;-44
2021/12/09 09:37:11;;;;;;;9.63;4.57;;;3.40;99.90;;;;;;5028542;28;20018;-43
2021/12/09 09:39:41;;;;;;;6.95;3.97;;;3.40;99.90;;;;;;5037141;28;20033;-43
2021/12/09 09:44:48;;;;;;;8.65;4.00;;;3.50;99.90;;;;;;5038155;28;20041;-43
2021/12/09 09:47:16;;;;;;;6.63;4.22;;;3.50;99.90;;;;;;5027393;28;20473;-42
2021/12/09 09:49:42;;;;;;;6.68;4.20;;;3.60;99.90;;;;;;5037670;28;20029;-43
2021/12/09 09:52:08;;;;;;;7.13;3.97;;;3.70;99.90;;;;;;5026454;28;20021;-43
2021/12/09 09:54:34;;;;;;;7.70;4.32;;;3.70;99.90;;;;;;5032736;28;20466;-42
2021/12/09 09:56:59;;;;;;;6.90;3.97;;;3.80;99.90;;;;;;5026682;28;20029;-43
2021/12/09 09:59:25;;;;;;;9.23;4.10;;;3.90;99.90;;;;;;5038400;28;20448;-43
2021/12/09 10:01:52;;;;;;;7.40;4.15;;;4.00;99.90;;;;;;5026436;28;20448;-43
2021/12/09 10:05:00;;;;;;;13.57;4.60;;;4.10;99.90;;;;;;5037204;28;20064;-42
2021/12/09 10:07:19;;;;;;;8.30;4.28;;;4.10;99.90;;;;;;5004991;28;20034;-42
2021/12/09 10:09:46;;;;;;;8.43;4.10;;;4.20;99.90;;;;;;5036001;28;20094;-44
2021/12/09 10:12:13;;;;;;;7.80;4.25;;;4.30;99.90;;;;;;5028855;28;20029;-44
2021/12/09 10:14:39;;;;;;;7.25;4.55;;;4.30;99.90;;;;;;5040168;28;20037;-43
2021/12/09 10:17:07;;;;;;;6.60;4.30;;;4.30;99.90;;;;;;5031916;28;20033;-44
2021/12/09 10:19:38;;;;;;;8.32;4.25;;;4.30;99.90;;;;;;5038342;28;20057;-43
2021/12/09 10:22:12;;;;;;;5.18;3.53;;;4.30;99.90;;;;;;5046305;28;20021;-42
2021/12/09 10:24:39;;;;;;;5.03;3.70;;;4.30;99.90;;;;;;5042470;28;20068;-42
2021/12/09 10:27:07;;;;;;;6.43;4.18;;;4.40;99.90;;;;;;5045277;28;20036;-42
2021/12/09 10:29:38;;;;;;;6.28;4.43;;;4.40;99.90;;;;;;5043176;28;20033;-43
2021/12/09 10:32:10;;;;;;;9.05;4.15;;;4.40;99.90;;;;;;5044452;28;20028;-43
2021/12/09 10:34:40;;;;;;;7.88;4.25;;;4.40;99.90;;;;;;5044944;28;20025;-43
2021/12/09 10:37:10;;;;;;;6.45;4.00;;;4.50;99.90;;;;;;5041488;28;20032;-43
2021/12/09 10:39:41;;;;;;;9.95;5.30;;;4.40;99.90;;;;;;5046286;28;20044;-42
2021/12/09 10:42:17;;;;;;;9.07;5.78;;;4.40;99.90;;;;;;5040352;28;20029;-43
2021/12/09 10:44:52;;;;;;;10.93;5.00;;;4.40;99.90;;;;;;5046322;28;20476;-44
2021/12/09 10:47:36;;;;;;;9.18;5.18;;;4.40;99.90;;;;;;5041232;28;20039;-42
2021/12/09 10:50:16;;;;;;;8.38;4.75;;;4.40;99.90;;;;;;5045187;28;20105;-43
2021/12/09 10:52:48;;;;;;;8.00;4.70;;;4.40;99.90;;;;;;5042843;28;20021;-43
2021/12/09 10:55:32;;;;;;;9.95;5.97;;;4.50;99.90;;;;;;5039647;28;20052;-43
2021/12/09 10:58:03;;;;;;;7.97;4.72;;;4.50;99.90;;;;;;5044998;28;20037;-43
2021/12/09 11:00:36;;;;;;;8.52;4.53;;;4.50;99.90;;;;;;5044786;28;20048;-43
2021/12/09 11:03:03;;;;;;;;;;;4.50;99.90;;;;;;5043173;28;20028;-43
2021/12/09 11:05:30;;;;;;;9.32;5.30;;;4.50;99.90;;;;;;5044280;28;19943;-43
2021/12/09 11:08:32;;;;;;;11.80;5.50;;;4.50;99.90;;;;;;5040738;28;20033;-43
2021/12/09 11:11:03;;;;;;;13.18;6.03;;;4.50;99.90;;;;;;5035607;28;20484;-42
2021/12/09 11:13:58;;;;;;;10.02;5.82;;;4.50;99.90;;;;;;5034626;28;20592;-43
2021/12/09 11:16:37;;;;;;;10.68;6.30;;;4.50;99.90;;;;;;5036431;28;20147;-43
2021/12/09 11:19:14;;;;;;;13.45;6.97;;;4.50;99.90;;;;;;5030474;28;20096;-43
2021/12/09 11:21:45;;;;;;;10.88;7.32;;;4.60;99.90;;;;;;5037647;28;20511;-43
2021/12/09 11:24:17;;;;;;;16.25;7.80;;;4.60;99.90;;;;;;5031056;28;20116;-43
2021/12/09 11:26:53;;;;;;;11.77;7.50;;;4.60;99.90;;;;;;5036396;28;20835;-44
2021/12/09 11:29:27;;;;;;;10.57;7.53;;;4.60;99.90;;;;;;5032413;28;20026;-44
2021/12/09 11:34:41;;;;;;;11.32;7.63;;;4.70;99.90;;;;;;5031861;28;20534;-44
2021/12/09 11:37:20;;;;;;;12.90;7.63;;;4.70;99.90;;;;;;5037338;28;20358;-43
2021/12/09 11:39:47;;;;;;;12.65;7.53;;;4.70;99.90;;;;;;5030245;28;20431;-42
2021/12/09 11:42:22;;;;;;;13.55;8.32;;;4.70;99.90;;;;;;5036501;28;20043;-42
2021/12/09 11:44:48;;;;;;;12.15;8.25;;;4.70;99.90;;;;;;5031763;28;20029;-43
2021/12/09 11:47:15;;;;;;;13.02;8.10;;;4.80;99.90;;;;;;5034618;28;20013;-44
2021/12/09 11:49:43;;;;;;;13.85;8.77;;;4.80;99.90;;;;;;5033891;28;20030;-42
2021/12/09 11:52:11;;;;;;;12.77;7.43;;;4.80;99.90;;;;;;5031983;28;20057;-42
2021/12/09 11:54:38;;;;;;;12.13;6.85;;;4.80;99.90;;;;;;5039217;28;20033;-43
2021/12/09 11:57:19;;;;;;;9.52;7.38;;;4.90;99.90;;;;;;5045811;28;20534;-43
2021/12/09 12:06:42;;;;;;;11.88;8.23;;;4.90;99.90;;;;;;5039389;28;20040;-43
2021/12/09 12:11:58;;;;;;;14.13;9.25;;;5.00;99.90;;;;;;5047656;28;20031;-43
2021/12/09 12:14:37;;;;;;;11.35;8.65;;;5.10;99.90;;;;;;5035942;28;20029;-43
2021/12/09 12:17:29;;;;;;;12.18;8.75;;;5.20;99.90;;;;;;5048168;28;20033;-44
2021/12/09 12:20:27;;;;;;;10.63;8.60;;;5.20;99.90;;;;;;5037683;28;20045;-43
2021/12/09 12:28:24;;;;;;;9.85;7.55;;;5.30;99.90;;;;;;5029571;28;20033;-42
2021/12/09 12:34:59;;;;;;;10.23;8.35;;;5.30;99.90;;;;;;5031317;28;20055;-44
2021/12/09 12:42:26;;;;;;;8.35;6.68;;;5.30;99.90;;;;;;5026998;28;20536;-43
2021/12/09 12:48:14;;;;;;;10.32;7.30;;;5.30;99.90;;;;;;5027881;28;20112;-43
2021/12/09 12:50:39;;;;;;;10.43;7.60;;;5.30;99.90;;;;;;5037502;28;20034;-43
2021/12/09 12:53:38;;;;;;;9.18;6.55;;;5.30;99.90;;;;;;5027270;28;20040;-43
2021/12/09 12:56:16;;;;;;;10.82;8.02;;;5.30;99.90;;;;;;5036126;28;20018;-43
2021/12/09 12:59:12;;;;;;;9.07;7.50;;;5.40;99.90;;;;;;5028296;28;20668;-44
2021/12/09 13:01:44;;;;;;;12.02;8.18;;;5.40;99.90;;;;;;5027924;28;20093;-43
2021/12/09 13:07:24;;;;;;;10.70;8.13;;;5.40;99.90;;;;;;5035475;28;20447;-43
2021/12/09 13:10:03;;;;;;;10.30;7.85;;;5.40;99.90;;;;;;5041214;28;20021;-44
2021/12/09 13:12:38;;;;;;;8.95;7.55;;;5.40;99.90;;;;;;5040941;28;20029;-43
2021/12/09 13:15:27;;;;;;;8.70;7.35;;;5.40;99.90;;;;;;5040691;28;20056;-43
2021/12/09 13:18:02;;;;;;;10.80;8.07;;;5.40;99.90;;;;;;5042169;28;20493;-43
2021/12/09 13:20:32;;;;;;;8.75;7.43;;;5.50;99.90;;;;;;5039159;28;20042;-43
2021/12/09 13:23:22;;;;;;;9.05;7.28;;;5.50;99.90;;;;;;5042433;28;20104;-44
2021/12/09 13:26:20;;;;;;;9.50;7.13;;;5.50;99.90;;;;;;5036947;28;20404;-44
2021/12/09 13:29:06;;;;;;;10.75;7.75;;;5.50;99.90;;;;;;5027020;28;20481;-43
2021/12/09 13:31:56;;;;;;;10.05;8.00;;;5.50;99.90;;;;;;5038189;28;20036;-42
2021/12/09 13:34:41;;;;;;;9.65;7.47;;;5.50;99.90;;;;;;5027174;28;20079;-43
2021/12/09 13:48:26;;;;;;;10.23;7.90;;;5.50;99.90;;;;;;5041187;28;20453;-43
2021/12/09 13:51:17;;;;;;;8.52;7.35;;;5.50;99.90;;;;;;5032630;28;20021;-43